createdAt,value
2023-04-01T00:02:41.366Z,12.51
2023-04-01T00:06:41.188Z,12.49
2023-04-01T00:10:41.237Z,12.49
2023-04-01T00:14:41.132Z,12.48
2023-04-01T00:18:41.094Z,12.51
2023-04-01T00:22:41.241Z,12.48
2023-04-01T00:26:41.364Z,12.48
2023-04-01T00:30:41.746Z,12.45
2023-04-01T00:34:41.326Z,12.44
2023-04-01T00:38:41.298Z,12.34
2023-04-01T00:42:41.245Z,12.32
2023-04-01T00:46:41.240Z,12.29
2023-04-01T00:50:41.182Z,12.25
2023-04-01T00:54:41.758Z,12.21
2023-04-01T00:58:41.114Z,12.18
2023-04-01T01:02:41.418Z,12.18
2023-04-01T01:06:41.070Z,12.20
2023-04-01T01:10:41.284Z,12.18
2023-04-01T01:14:40.968Z,12.10
2023-04-01T01:18:40.959Z,12.07
2023-04-01T01:22:41.271Z,12.02
2023-04-01T01:26:41.283Z,12.04
2023-04-01T01:30:41.370Z,12.07
2023-04-01T01:34:40.793Z,12.00
2023-04-01T01:38:40.788Z,12.07
2023-04-01T01:42:40.716Z,12.10
2023-04-01T01:46:40.816Z,12.17
2023-04-01T01:50:40.774Z,12.21
2023-04-01T01:54:40.780Z,12.25
2023-04-01T01:58:40.702Z,12.24
2023-04-01T02:02:40.821Z,12.23
2023-04-01T02:06:41.288Z,12.21
2023-04-01T02:10:40.931Z,12.21
2023-04-01T02:14:41.774Z,12.20
2023-04-01T02:18:41.065Z,12.20
2023-04-01T02:22:41.281Z,12.24
2023-04-01T02:26:41.117Z,12.25
2023-04-01T02:30:41.295Z,12.24
2023-04-01T02:34:41.289Z,12.18
2023-04-01T02:38:41.893Z,12.13
2023-04-01T02:42:41.523Z,12.08
2023-04-01T02:46:41.884Z,12.07
2023-04-01T02:50:41.768Z,11.97
2023-04-01T02:54:41.947Z,11.97
2023-04-01T02:58:42.289Z,11.97
2023-04-01T03:02:42.259Z,11.91
2023-04-01T03:06:42.779Z,11.87
2023-04-01T03:10:42.563Z,11.89
2023-04-01T03:14:42.738Z,11.86
2023-04-01T03:18:43.307Z,11.84
2023-04-01T03:22:43.235Z,11.81
2023-04-01T03:26:43.395Z,11.83
2023-04-01T03:30:43.594Z,11.83
2023-04-01T03:34:43.530Z,11.83
2023-04-01T03:38:43.794Z,11.80
2023-04-01T03:42:43.603Z,11.80
2023-04-01T03:46:43.971Z,11.81
2023-04-01T03:50:43.403Z,11.81
2023-04-01T03:54:43.955Z,11.79
2023-04-01T03:58:43.390Z,11.76
2023-04-01T04:02:43.495Z,11.73
2023-04-01T04:06:43.425Z,11.70
2023-04-01T04:10:43.231Z,11.77
2023-04-01T04:14:43.813Z,11.79
2023-04-01T04:18:43.626Z,11.79
2023-04-01T04:22:44.304Z,11.83
2023-04-01T04:26:44.060Z,11.66
2023-04-01T04:30:44.255Z,11.66
2023-04-01T04:34:44.810Z,11.55
2023-04-01T04:38:44.454Z,11.53
2023-04-01T04:42:44.808Z,11.53
2023-04-01T04:46:44.474Z,11.35
2023-04-01T04:50:44.322Z,11.46
2023-04-01T04:54:44.293Z,11.53
2023-04-01T04:58:44.271Z,11.55
2023-04-01T05:02:44.389Z,11.53
2023-04-01T05:06:44.178Z,11.56
2023-04-01T05:10:44.391Z,11.55
2023-04-01T05:14:44.273Z,11.58
2023-04-01T05:18:44.512Z,11.43
2023-04-01T05:22:44.841Z,11.51
2023-04-01T05:26:44.621Z,11.59
2023-04-01T05:30:44.845Z,11.63
2023-04-01T05:34:44.855Z,11.66
2023-04-01T05:38:44.681Z,11.68
2023-04-01T05:42:44.985Z,11.66
2023-04-01T05:46:44.708Z,11.69
2023-04-01T05:50:44.839Z,11.66
2023-04-01T05:54:44.958Z,11.69
2023-04-01T05:58:44.941Z,11.69
2023-04-01T06:02:44.902Z,11.68
2023-04-01T06:06:44.499Z,11.74
2023-04-01T06:10:44.506Z,11.80
2023-04-01T06:14:44.836Z,11.93
2023-04-01T06:18:44.423Z,12.00
2023-04-01T06:22:44.512Z,12.07
2023-04-01T06:26:44.284Z,12.10
2023-04-01T06:30:44.394Z,12.07
2023-04-01T06:34:44.362Z,12.04
2023-04-01T06:38:44.192Z,12.02
2023-04-01T06:42:44.120Z,12.02
2023-04-01T06:46:44.346Z,11.98
2023-04-01T06:50:44.451Z,11.97
2023-04-01T06:54:44.203Z,12.00
2023-04-01T06:58:44.869Z,12.04
2023-04-01T07:02:44.546Z,12.07
2023-04-01T07:06:44.947Z,12.15
2023-04-01T07:10:44.892Z,12.20
2023-04-01T07:14:45.126Z,12.27
2023-04-01T07:18:44.983Z,12.28
2023-04-01T07:22:45.003Z,12.34
2023-04-01T07:26:45.661Z,12.44
2023-04-01T07:30:45.043Z,12.55
2023-04-01T07:34:45.430Z,12.62
2023-04-01T07:38:45.433Z,12.48
2023-04-01T07:42:45.196Z,12.62
2023-04-01T07:46:45.501Z,12.66
2023-04-01T07:50:47.112Z,12.76
2023-04-01T07:54:44.992Z,12.84
2023-04-01T07:58:45.337Z,12.86
2023-04-01T08:02:44.989Z,12.90
2023-04-01T08:06:44.886Z,13.00
2023-04-01T08:10:44.896Z,13.06
2023-04-01T08:14:44.805Z,13.14
2023-04-01T08:18:44.744Z,13.10
2023-04-01T08:22:44.875Z,13.10
2023-04-01T08:26:44.884Z,13.33
2023-04-01T08:30:44.846Z,13.55
2023-04-01T08:34:45.486Z,13.76
2023-04-01T08:38:44.641Z,13.56
2023-04-01T08:42:44.886Z,13.66
2023-04-01T08:46:44.963Z,13.89
2023-04-01T08:50:45.018Z,14.11
2023-04-01T08:54:44.445Z,14.10
2023-04-01T08:58:44.415Z,14.08
2023-04-01T09:02:44.496Z,14.13
2023-04-01T09:06:44.366Z,14.04
2023-04-01T09:10:44.378Z,14.10
2023-04-01T09:14:44.269Z,13.76
2023-04-01T09:18:44.229Z,14.23
2023-04-01T09:22:44.408Z,14.32
2023-04-01T09:26:44.380Z,14.51
2023-04-01T09:30:44.387Z,14.49
2023-04-01T09:34:44.396Z,14.61
2023-04-01T09:38:44.397Z,14.39
2023-04-01T09:42:44.970Z,14.20
2023-04-01T09:46:45.060Z,14.36
2023-04-01T09:50:44.949Z,14.68
2023-04-01T09:54:44.892Z,14.86
2023-04-01T09:58:45.022Z,15.13
2023-04-01T10:02:45.514Z,15.20
2023-04-01T10:06:45.451Z,14.97
2023-04-01T10:10:44.918Z,14.91
2023-04-01T10:14:44.891Z,15.11
2023-04-01T10:18:44.808Z,14.89
2023-04-01T10:22:44.970Z,15.03
2023-04-01T10:26:44.955Z,15.07
2023-04-01T10:30:44.674Z,15.27
2023-04-01T10:34:44.672Z,15.24
2023-04-01T10:38:44.620Z,15.61
2023-04-01T10:42:44.914Z,15.48
2023-04-01T10:46:44.939Z,15.63
2023-04-01T10:50:44.951Z,15.89
2023-04-01T10:54:44.782Z,16.00
2023-04-01T10:58:44.824Z,15.82
2023-04-01T11:02:44.991Z,15.92
2023-04-01T11:06:45.545Z,16.03
2023-04-01T11:10:45.112Z,16.29
2023-04-01T11:14:45.014Z,16.20
2023-04-01T11:18:44.938Z,16.63
2023-04-01T11:22:44.975Z,17.02
2023-04-01T11:26:44.948Z,17.31
2023-04-01T11:30:44.900Z,17.06
2023-04-01T11:34:44.807Z,17.11
2023-04-01T11:38:44.743Z,17.20
2023-04-01T11:42:44.974Z,17.02
2023-04-01T11:46:44.754Z,17.21
2023-04-01T11:50:44.751Z,17.68
2023-04-01T11:54:45.522Z,17.55
2023-04-01T11:58:44.584Z,17.65
2023-04-01T12:02:45.102Z,17.68
2023-04-01T12:06:45.034Z,17.62
2023-04-01T12:10:44.506Z,17.49
2023-04-01T12:14:44.457Z,17.61
2023-04-01T12:18:44.447Z,17.93
2023-04-01T12:22:44.525Z,17.64
2023-04-01T12:26:44.956Z,17.75
2023-04-01T12:30:44.406Z,17.61
2023-04-01T12:34:44.445Z,17.45
2023-04-01T12:38:44.345Z,17.45
2023-04-01T12:42:44.448Z,17.48
2023-04-01T12:46:44.382Z,17.52
2023-04-01T12:50:44.337Z,17.16
2023-04-01T12:54:44.231Z,17.10
2023-04-01T12:58:44.454Z,17.45
2023-04-01T13:02:54.524Z,17.28
2023-04-01T13:06:44.114Z,17.18
2023-04-01T13:10:44.071Z,17.13
2023-04-01T13:14:44.483Z,16.89
2023-04-01T13:18:43.999Z,17.11
2023-04-01T13:22:44.077Z,17.24
2023-04-01T13:26:43.907Z,17.24
2023-04-01T13:30:43.970Z,17.05
2023-04-01T13:34:44.545Z,17.20
2023-04-01T13:38:44.511Z,16.83
2023-04-01T13:42:46.361Z,17.06
2023-04-01T13:46:44.486Z,16.72
2023-04-01T13:50:44.571Z,16.96
2023-04-01T13:54:45.232Z,16.63
2023-04-01T13:58:44.785Z,16.91
2023-04-01T14:02:45.155Z,16.87
2023-04-01T14:06:45.158Z,16.79
2023-04-01T14:10:45.254Z,16.50
2023-04-01T14:14:45.576Z,16.32
2023-04-01T14:18:45.991Z,16.14
2023-04-01T14:22:45.735Z,16.47
2023-04-01T14:26:45.887Z,16.29
2023-04-01T14:30:46.057Z,16.40
2023-04-01T14:34:46.110Z,16.50
2023-04-01T14:38:45.987Z,16.61
2023-04-01T14:42:46.058Z,16.58
2023-04-01T14:46:46.507Z,16.29
2023-04-01T14:50:45.848Z,16.45
2023-04-01T14:54:46.030Z,16.23
2023-04-01T14:58:45.997Z,16.10
2023-04-01T15:02:45.850Z,16.32
2023-04-01T15:06:46.030Z,16.42
2023-04-01T15:10:45.680Z,16.20
2023-04-01T15:14:46.017Z,16.35
2023-04-01T15:18:45.628Z,16.44
2023-04-01T15:22:45.699Z,16.23
2023-04-01T15:26:46.092Z,16.17
2023-04-01T15:32:59.418Z,16.54
2023-04-01T15:36:59.242Z,16.27
2023-04-01T15:40:59.419Z,16.10
2023-04-01T15:44:59.417Z,16.03
2023-04-01T15:48:59.008Z,16.23
2023-04-01T15:52:58.974Z,16.34
2023-04-01T15:56:59.379Z,15.97
2023-04-01T16:00:58.961Z,16.00
2023-04-01T16:04:59.362Z,16.18
2023-04-01T16:08:58.921Z,16.51
2023-04-01T16:12:58.763Z,16.61
2023-04-01T16:16:58.904Z,16.59
2023-04-01T16:20:58.682Z,16.68
2023-04-01T16:24:59.462Z,16.55
2023-04-01T16:28:58.762Z,16.69
2023-04-01T16:32:58.625Z,16.70
2023-04-01T16:36:58.618Z,16.62
2023-04-01T16:40:58.856Z,16.54
2023-04-01T16:44:58.606Z,16.54
2023-04-01T16:48:58.837Z,16.44
2023-04-01T16:52:58.728Z,16.56
2023-04-01T16:56:58.825Z,16.36
2023-04-01T17:00:58.859Z,16.54
2023-04-01T17:04:58.901Z,16.63
2023-04-01T17:08:59.042Z,16.62
2023-04-01T17:12:59.380Z,16.56
2023-04-01T17:16:59.109Z,16.54
2023-04-01T17:20:59.365Z,16.59
2023-04-01T17:24:59.061Z,16.58
2023-04-01T17:28:58.987Z,16.58
2023-04-01T17:32:59.412Z,16.56
2023-04-01T17:36:59.354Z,16.54
2023-04-01T17:40:58.880Z,16.54
2023-04-01T17:44:58.891Z,16.51
2023-04-01T17:48:58.814Z,16.47
2023-04-01T17:52:58.885Z,16.44
2023-04-01T17:56:58.852Z,16.42
2023-04-01T18:00:59.711Z,16.41
2023-04-01T18:04:59.161Z,16.35
2023-04-01T18:08:59.156Z,16.29
2023-04-01T18:12:59.116Z,16.27
2023-04-01T18:16:59.401Z,16.28
2023-04-01T18:20:59.122Z,16.23
2023-04-01T18:24:59.377Z,16.25
2023-04-01T18:28:59.179Z,16.20
2023-04-01T18:32:59.377Z,16.18
2023-04-01T18:36:59.498Z,16.17
2023-04-01T18:40:59.485Z,16.16
2023-04-01T18:44:59.469Z,16.08
2023-04-01T18:48:59.546Z,16.10
2023-04-01T18:52:59.886Z,16.08
2023-04-01T18:56:59.722Z,16.00
2023-04-01T19:00:59.923Z,15.44
2023-04-01T19:04:59.808Z,15.65
2023-04-01T19:09:00.427Z,15.74
2023-04-01T19:13:00.218Z,15.80
2023-04-01T19:17:00.356Z,15.83
2023-04-01T19:21:00.901Z,15.78
2023-04-01T19:25:00.496Z,15.69
2023-04-01T19:29:00.915Z,15.72
2023-04-01T19:33:00.781Z,15.76
2023-04-01T19:37:01.444Z,15.74
2023-04-01T19:41:01.207Z,15.73
2023-04-01T19:45:01.167Z,15.70
2023-04-01T19:49:01.405Z,15.68
2023-04-01T19:53:01.427Z,15.72
2023-04-01T19:57:01.037Z,15.68
2023-04-01T20:01:01.493Z,15.66
2023-04-01T20:05:01.084Z,15.62
2023-04-01T20:09:01.444Z,15.55
2023-04-01T20:13:01.405Z,15.49
2023-04-01T20:17:01.032Z,15.46
2023-04-01T20:21:00.949Z,15.25
2023-04-01T20:25:00.806Z,15.30
2023-04-01T20:29:00.919Z,15.33
2023-04-01T20:33:00.778Z,15.33
2023-04-01T20:37:01.003Z,15.33
2023-04-01T20:41:00.695Z,15.28
2023-04-01T20:45:00.941Z,15.18
2023-04-01T20:49:00.643Z,15.17
2023-04-01T20:53:00.964Z,15.13
2023-04-01T20:57:00.954Z,15.11
2023-04-01T21:01:01.006Z,15.07
2023-04-01T21:05:00.960Z,15.01
2023-04-01T21:09:01.243Z,14.97
2023-04-01T21:13:01.646Z,14.61
2023-04-01T21:17:01.266Z,14.65
2023-04-01T21:21:01.501Z,14.63
2023-04-01T21:25:01.482Z,14.61
2023-04-01T21:29:01.560Z,14.49
2023-04-01T21:33:01.537Z,14.51
2023-04-01T21:37:01.518Z,14.46
2023-04-01T21:41:01.302Z,14.52
2023-04-01T21:45:01.554Z,14.52
2023-04-01T21:49:01.446Z,14.49
2023-04-01T21:53:01.175Z,14.49
2023-04-01T21:57:01.292Z,14.45
2023-04-01T22:01:01.559Z,14.44
2023-04-01T22:05:01.443Z,14.42
2023-04-01T22:09:01.093Z,14.23
2023-04-01T22:13:01.446Z,14.24
2023-04-01T22:17:01.009Z,14.04
2023-04-01T22:21:01.452Z,13.97
2023-04-01T22:25:00.933Z,13.96
2023-04-01T22:29:01.053Z,14.04
2023-04-01T22:33:00.901Z,14.06
2023-04-01T22:37:00.850Z,14.08
2023-04-01T22:41:01.131Z,14.10
2023-04-01T22:45:00.822Z,14.06
2023-04-01T22:49:01.105Z,13.93
2023-04-01T22:53:00.724Z,13.96
2023-04-01T22:57:00.859Z,13.97
2023-04-01T23:01:01.077Z,13.97
2023-04-01T23:05:00.800Z,13.97
2023-04-01T23:09:01.529Z,13.91
2023-04-01T23:13:00.861Z,13.87
2023-04-01T23:17:01.028Z,13.87
2023-04-01T23:21:02.002Z,13.84
2023-04-01T23:25:01.399Z,13.83
2023-04-01T23:29:01.970Z,13.83
2023-04-01T23:33:01.866Z,13.84
2023-04-01T23:37:02.004Z,13.81
2023-04-01T23:41:02.963Z,13.83
2023-04-01T23:45:02.336Z,13.83
2023-04-01T23:49:02.973Z,13.80
2023-04-01T23:53:02.828Z,13.84
2023-04-01T23:57:03.524Z,13.81
